createdAt,value
2018-07-05T00:00:49.546Z,20.59
2018-07-05T00:03:36.374Z,20.67
2018-07-05T00:06:24.830Z,20.59
2018-07-05T00:09:13.133Z,20.48
2018-07-05T00:12:01.447Z,20.03
2018-07-05T00:14:48.981Z,19.92
2018-07-05T00:17:35.696Z,19.83
2018-07-05T00:20:23.615Z,19.85
2018-07-05T00:23:10.185Z,19.98
2018-07-05T00:25:57.127Z,20.02
2018-07-05T00:28:43.820Z,20.01
2018-07-05T00:31:31.311Z,20.11
2018-07-05T00:34:18.037Z,19.96
2018-07-05T00:37:10.581Z,19.98
2018-07-05T00:39:57.922Z,19.68
2018-07-05T00:42:45.033Z,19.54
2018-07-05T00:45:36.955Z,19.71
2018-07-05T00:48:24.340Z,19.66
2018-07-05T00:51:11.454Z,19.39
2018-07-05T00:53:58.365Z,19.24
2018-07-05T00:56:46.508Z,19.24
2018-07-05T00:59:33.973Z,19.31
2018-07-05T01:02:20.269Z,19.15
2018-07-05T01:05:07.577Z,18.98
2018-07-05T01:07:57.870Z,19.11
2018-07-05T01:10:44.315Z,19.13
2018-07-05T01:13:32.257Z,19.15
2018-07-05T01:16:21.233Z,19.11
2018-07-05T01:19:09.644Z,18.76
2018-07-05T01:21:57.821Z,18.99
2018-07-05T01:24:45.113Z,18.90
2018-07-05T01:27:35.709Z,18.99
2018-07-05T01:30:22.937Z,19.18
2018-07-05T01:33:10.366Z,18.98
2018-07-05T01:36:00.760Z,19.00
2018-07-05T01:38:48.119Z,19.03
2018-07-05T01:41:34.408Z,19.05
2018-07-05T01:44:22.285Z,19.04
2018-07-05T01:47:09.239Z,18.99
2018-07-05T01:49:56.799Z,18.99
2018-07-05T01:52:44.462Z,18.68
2018-07-05T01:55:34.354Z,18.67
2018-07-05T01:58:21.094Z,18.80
2018-07-05T02:01:08.679Z,18.76
2018-07-05T02:03:55.388Z,18.45
2018-07-05T02:06:47.065Z,18.60
2018-07-05T02:09:36.897Z,18.71
2018-07-05T02:12:25.935Z,18.77
2018-07-05T02:15:15.528Z,18.88
2018-07-05T02:18:03.185Z,18.98
2018-07-05T02:20:50.341Z,18.30
2018-07-05T02:23:40.220Z,18.54
2018-07-05T02:26:28.242Z,18.54
2018-07-05T02:29:16.485Z,18.39
2018-07-05T02:32:05.484Z,18.22
2018-07-05T02:34:55.117Z,18.01
2018-07-05T02:37:47.586Z,17.91
2018-07-05T02:40:36.053Z,18.08
2018-07-05T02:43:24.145Z,18.21
2018-07-05T02:46:12.246Z,18.26
2018-07-05T02:48:58.749Z,18.38
2018-07-05T02:51:46.266Z,18.30
2018-07-05T02:54:35.941Z,18.26
2018-07-05T02:57:23.653Z,18.20
2018-07-05T03:00:11.517Z,18.19
2018-07-05T03:02:59.420Z,18.04
2018-07-05T03:05:47.436Z,17.80
2018-07-05T03:08:34.211Z,17.75
2018-07-05T03:11:22.514Z,17.85
2018-07-05T03:14:09.750Z,17.87
2018-07-05T03:16:57.627Z,18.03
2018-07-05T03:19:47.540Z,17.99
2018-07-05T03:22:35.573Z,17.98
2018-07-05T03:25:22.916Z,18.07
2018-07-05T03:28:09.698Z,18.18
2018-07-05T03:30:58.516Z,18.13
2018-07-05T03:33:45.539Z,18.08
2018-07-05T03:36:32.488Z,17.86
2018-07-05T03:39:20.025Z,17.76
2018-07-05T03:42:07.607Z,17.65
2018-07-05T03:44:56.167Z,17.76
2018-07-05T03:47:42.518Z,16.80
2018-07-05T03:50:34.319Z,17.03
2018-07-05T03:53:25.161Z,17.35
2018-07-05T03:56:12.090Z,17.67
2018-07-05T03:59:00.328Z,17.81
2018-07-05T04:01:49.252Z,17.62
2018-07-05T04:04:36.744Z,17.66
2018-07-05T04:07:26.979Z,17.61
2018-07-05T04:10:18.062Z,17.65
2018-07-05T04:13:10.198Z,17.82
2018-07-05T04:16:01.056Z,17.95
2018-07-05T04:18:49.533Z,18.05
2018-07-05T04:21:36.243Z,17.98
2018-07-05T04:24:24.233Z,17.82
2018-07-05T04:27:12.337Z,18.13
2018-07-05T04:29:59.283Z,18.18
2018-07-05T04:32:46.899Z,18.05
2018-07-05T04:35:33.565Z,18.35
2018-07-05T04:38:20.839Z,18.28
2018-07-05T04:41:12.620Z,18.34
2018-07-05T04:44:01.014Z,18.41
2018-07-05T04:46:47.680Z,18.39
2018-07-05T04:49:35.456Z,18.42
2018-07-05T04:52:24.913Z,18.48
2018-07-05T04:55:13.870Z,18.60
2018-07-05T04:58:06.691Z,18.53
2018-07-05T05:00:54.177Z,18.46
2018-07-05T05:03:41.785Z,18.54
2018-07-05T05:06:28.414Z,18.74
2018-07-05T05:09:16.229Z,18.81
2018-07-05T05:12:05.726Z,18.96
2018-07-05T05:14:54.790Z,19.08
2018-07-05T05:17:42.003Z,19.15
2018-07-05T05:20:29.123Z,19.15
2018-07-05T05:23:19.814Z,19.02
2018-07-05T05:26:09.855Z,19.01
2018-07-05T05:28:57.825Z,19.13
2018-07-05T05:31:45.864Z,19.24
2018-07-05T05:34:35.432Z,19.36
2018-07-05T05:37:22.528Z,19.46
2018-07-05T05:40:17.986Z,19.57
2018-07-05T05:43:06.897Z,19.55
2018-07-05T05:45:53.161Z,19.81
2018-07-05T05:48:40.792Z,20.06
2018-07-05T05:51:28.405Z,20.00
2018-07-05T05:54:17.180Z,20.07
2018-07-05T05:57:05.836Z,19.96
2018-07-05T05:59:54.203Z,19.94
2018-07-05T06:02:41.960Z,19.95
2018-07-05T06:05:29.266Z,20.18
2018-07-05T06:08:16.979Z,20.33
2018-07-05T06:11:09.009Z,20.46
2018-07-05T06:13:55.933Z,20.58
2018-07-05T06:16:43.067Z,20.69
2018-07-05T06:19:31.426Z,20.76
2018-07-05T06:22:19.978Z,20.78
2018-07-05T06:25:08.039Z,20.81
2018-07-05T06:27:54.806Z,20.85
2018-07-05T06:30:42.916Z,20.58
2018-07-05T06:33:30.047Z,20.79
2018-07-05T06:36:17.759Z,21.14
2018-07-05T06:39:07.498Z,21.31
2018-07-05T06:41:55.705Z,21.45
2018-07-05T06:44:42.623Z,21.05
2018-07-05T06:47:33.379Z,21.61
2018-07-05T06:50:22.099Z,21.26
2018-07-05T06:53:09.488Z,21.70
2018-07-05T06:55:56.894Z,21.62
2018-07-05T06:58:44.613Z,21.63
2018-07-05T07:01:31.646Z,21.89
2018-07-05T07:04:21.004Z,21.89
2018-07-05T07:07:09.142Z,22.00
2018-07-05T07:09:56.149Z,22.07
2018-07-05T07:12:42.711Z,22.14
2018-07-05T07:15:31.001Z,22.31
2018-07-05T07:18:18.928Z,22.72
2018-07-05T07:21:07.550Z,22.92
2018-07-05T07:23:57.866Z,22.96
2018-07-05T07:26:44.545Z,22.91
2018-07-05T07:29:31.215Z,22.81
2018-07-05T07:32:19.646Z,23.06
2018-07-05T07:35:12.014Z,23.42
2018-07-05T07:37:59.096Z,23.63
2018-07-05T07:40:45.426Z,23.99
2018-07-05T07:43:21.146Z,24.19
2018-07-05T07:45:55.403Z,24.23
2018-07-05T07:48:24.505Z,24.41
2018-07-05T07:50:53.917Z,24.51
2018-07-05T07:53:29.018Z,24.56
2018-07-05T07:55:57.413Z,24.52
2018-07-05T07:58:26.356Z,24.52
2018-07-05T08:00:55.997Z,24.44
2018-07-05T08:03:23.975Z,24.15
2018-07-05T08:05:54.496Z,24.40
2018-07-05T08:08:23.027Z,24.64
2018-07-05T08:10:51.585Z,24.01
2018-07-05T08:13:21.089Z,24.71
2018-07-05T08:15:49.922Z,24.88
2018-07-05T08:18:19.295Z,25.00
2018-07-05T08:20:47.561Z,25.11
2018-07-05T08:23:15.941Z,24.64
2018-07-05T08:25:44.246Z,24.91
2018-07-05T08:28:12.819Z,25.45
2018-07-05T08:30:42.141Z,25.59
2018-07-05T08:33:10.424Z,25.62
2018-07-05T08:35:39.092Z,24.85
2018-07-05T08:38:07.663Z,25.09
2018-07-05T08:40:38.572Z,24.94
2018-07-05T08:43:07.299Z,25.36
2018-07-05T08:45:35.950Z,25.31
2018-07-05T08:48:03.796Z,25.75
2018-07-05T08:50:32.054Z,25.67
2018-07-05T08:53:01.523Z,25.90
2018-07-05T08:55:30.777Z,25.77
2018-07-05T08:57:59.760Z,25.80
2018-07-05T09:00:29.479Z,25.99
2018-07-05T09:02:57.825Z,26.13
2018-07-05T09:05:27.139Z,26.44
2018-07-05T09:07:56.049Z,26.63
2018-07-05T09:10:26.025Z,26.78
2018-07-05T09:12:54.305Z,26.16
2018-07-05T09:15:26.427Z,26.40
2018-07-05T09:17:54.681Z,26.61
2018-07-05T09:20:22.980Z,27.00
2018-07-05T09:22:53.929Z,26.60
2018-07-05T09:25:21.995Z,26.57
2018-07-05T09:27:51.884Z,26.35
2018-07-05T09:30:21.160Z,26.40
2018-07-05T09:32:50.103Z,26.71
2018-07-05T09:35:18.428Z,27.00
2018-07-05T09:37:47.154Z,27.28
2018-07-05T09:40:15.525Z,26.45
2018-07-05T09:42:44.487Z,27.09
2018-07-05T09:45:12.354Z,26.83
2018-07-05T09:47:40.813Z,26.84
2018-07-05T09:50:09.491Z,27.09
2018-07-05T09:52:38.840Z,27.23
2018-07-05T09:55:09.115Z,27.02
2018-07-05T09:57:38.891Z,26.68
2018-07-05T10:00:11.989Z,27.04
2018-07-05T10:02:41.507Z,26.57
2018-07-05T10:05:10.175Z,26.98
2018-07-05T10:07:38.998Z,26.98
2018-07-05T10:10:08.258Z,27.07
2018-07-05T10:12:44.569Z,27.00
2018-07-05T10:15:12.394Z,27.28
2018-07-05T10:17:41.387Z,27.14
2018-07-05T10:20:09.560Z,27.47
2018-07-05T10:22:38.342Z,28.02
2018-07-05T10:25:07.875Z,28.35
2018-07-05T10:27:36.700Z,27.69
2018-07-05T10:30:17.226Z,27.50
2018-07-05T10:33:03.692Z,27.83
2018-07-05T10:35:40.770Z,28.20
2018-07-05T10:38:09.584Z,28.01
2018-07-05T10:40:49.642Z,27.61
2018-07-05T10:43:36.626Z,27.97
2018-07-05T10:46:23.436Z,28.07
2018-07-05T10:49:10.160Z,28.63
2018-07-05T10:51:56.696Z,28.66
2018-07-05T10:54:48.041Z,29.27
2018-07-05T10:57:36.542Z,29.68
2018-07-05T11:00:23.279Z,29.70
2018-07-05T11:03:10.984Z,29.42
2018-07-05T11:05:58.052Z,29.61
2018-07-05T11:08:45.612Z,28.20
2018-07-05T11:11:33.016Z,28.05
2018-07-05T11:14:21.500Z,28.56
2018-07-05T11:17:08.511Z,28.99
2018-07-05T11:19:57.344Z,27.70
2018-07-05T11:22:44.324Z,27.74
2018-07-05T11:25:36.155Z,27.85
2018-07-05T11:28:24.483Z,27.91
2018-07-05T11:31:13.348Z,27.97
2018-07-05T11:34:00.749Z,27.63
2018-07-05T11:36:51.497Z,27.73
2018-07-05T11:39:38.164Z,27.51
2018-07-05T11:42:25.462Z,27.04
2018-07-05T11:45:14.697Z,26.41
2018-07-05T11:48:02.896Z,26.19
2018-07-05T11:50:50.148Z,25.24
2018-07-05T11:53:37.076Z,25.11
2018-07-05T11:56:25.432Z,25.07
2018-07-05T11:59:13.200Z,24.67
2018-07-05T12:02:01.040Z,24.71
2018-07-05T12:04:50.246Z,24.72
2018-07-05T12:07:38.640Z,24.86
2018-07-05T12:10:27.591Z,25.21
2018-07-05T12:13:14.574Z,25.13
2018-07-05T12:16:01.364Z,25.02
2018-07-05T12:18:48.838Z,24.31
2018-07-05T12:21:36.757Z,23.70
2018-07-05T12:24:23.463Z,23.82
2018-07-05T12:27:10.984Z,23.25
2018-07-05T12:29:59.209Z,22.53
2018-07-05T12:32:46.829Z,22.71
2018-07-05T12:35:34.341Z,22.60
2018-07-05T12:38:21.666Z,22.57
2018-07-05T12:41:12.252Z,22.79
2018-07-05T12:43:58.544Z,22.74
2018-07-05T12:46:45.495Z,22.99
2018-07-05T12:49:32.128Z,22.93
2018-07-05T12:52:19.324Z,23.18
2018-07-05T12:55:05.948Z,22.74
2018-07-05T12:57:54.048Z,22.97
2018-07-05T13:00:42.517Z,22.77
2018-07-05T13:03:30.516Z,22.33
2018-07-05T13:06:17.614Z,22.64
2018-07-05T13:09:05.613Z,22.63
2018-07-05T13:11:53.780Z,22.66
2018-07-05T13:14:41.754Z,22.55
2018-07-05T13:17:28.692Z,22.49
2018-07-05T13:20:16.838Z,22.57
2018-07-05T13:23:04.327Z,22.68
2018-07-05T13:25:51.716Z,22.71
2018-07-05T13:28:38.964Z,22.58
2018-07-05T13:31:27.293Z,22.75
2018-07-05T13:34:14.002Z,22.51
2018-07-05T13:37:01.105Z,22.68
2018-07-05T13:39:48.620Z,22.33
2018-07-05T13:42:35.742Z,22.19
2018-07-05T13:45:23.165Z,22.23
2018-07-05T13:48:10.392Z,22.41
2018-07-05T13:50:57.203Z,22.63
2018-07-05T13:53:48.296Z,22.85
2018-07-05T13:56:35.927Z,22.84
2018-07-05T13:59:23.330Z,22.95
2018-07-05T14:02:09.987Z,22.98
2018-07-05T14:05:00.501Z,22.94
2018-07-05T14:07:47.031Z,22.83
2018-07-05T14:10:34.092Z,22.79
2018-07-05T14:13:20.770Z,22.85
2018-07-05T14:16:10.492Z,22.85
2018-07-05T14:18:57.966Z,22.46
2018-07-05T14:21:44.892Z,22.34
2018-07-05T14:24:32.323Z,22.32
2018-07-05T14:27:19.013Z,22.03
2018-07-05T14:30:06.785Z,21.80
2018-07-05T14:32:54.219Z,21.59
2018-07-05T14:35:41.904Z,21.13
2018-07-05T14:38:29.181Z,20.52
2018-07-05T14:41:17.750Z,20.27
2018-07-05T14:44:05.085Z,19.84
2018-07-05T14:46:52.004Z,19.87
2018-07-05T14:49:38.794Z,19.80
2018-07-05T14:52:25.515Z,19.68
2018-07-05T14:55:12.976Z,19.83
2018-07-05T14:58:00.387Z,19.88
2018-07-05T15:00:47.094Z,19.48
2018-07-05T15:03:34.064Z,19.53
2018-07-05T15:06:21.012Z,19.61
2018-07-05T15:09:09.218Z,19.59
2018-07-05T15:11:56.713Z,19.48
2018-07-05T15:14:47.009Z,19.57
2018-07-05T15:17:33.602Z,19.66
2018-07-05T15:20:20.111Z,19.64
2018-07-05T15:23:06.664Z,19.69
2018-07-05T15:25:54.228Z,19.71
2018-07-05T15:28:40.622Z,19.72
2018-07-05T15:31:27.474Z,19.92
2018-07-05T15:34:14.877Z,20.00
2018-07-05T15:37:01.245Z,20.21
2018-07-05T15:39:48.548Z,20.52
2018-07-05T15:42:35.783Z,20.80
2018-07-05T15:45:22.401Z,21.17
2018-07-05T15:48:09.050Z,21.37
2018-07-05T15:50:56.058Z,21.50
2018-07-05T15:53:43.367Z,21.46
2018-07-05T15:56:30.044Z,21.82
2018-07-05T15:59:16.750Z,22.10
2018-07-05T16:02:04.291Z,22.27
2018-07-05T16:04:51.970Z,22.33
2018-07-05T16:07:38.649Z,22.32
2018-07-05T16:10:25.988Z,22.15
2018-07-05T16:13:12.332Z,22.00
2018-07-05T16:16:00.993Z,22.32
2018-07-05T16:18:47.826Z,22.16
2018-07-05T16:21:35.882Z,22.33
2018-07-05T16:24:22.932Z,22.41
2018-07-05T16:27:11.450Z,22.44
2018-07-05T16:29:58.701Z,22.30
2018-07-05T16:32:46.521Z,22.26
2018-07-05T16:35:32.922Z,22.08
2018-07-05T16:38:19.428Z,22.00
2018-07-05T16:41:05.967Z,21.95
2018-07-05T16:43:53.731Z,21.97
2018-07-05T16:46:41.059Z,22.05
2018-07-05T16:49:28.455Z,22.16
2018-07-05T16:52:14.721Z,22.18
2018-07-05T16:55:01.816Z,22.19
2018-07-05T16:57:48.476Z,22.38
2018-07-05T17:00:35.690Z,22.43
2018-07-05T17:03:23.986Z,22.39
2018-07-05T17:06:11.854Z,22.31
2018-07-05T17:08:58.599Z,22.32
2018-07-05T17:11:45.673Z,22.59
2018-07-05T17:14:34.373Z,22.63
2018-07-05T17:17:22.972Z,22.54
2018-07-05T17:20:11.627Z,22.36
2018-07-05T17:22:59.129Z,22.00
2018-07-05T17:25:45.776Z,22.03
2018-07-05T17:28:33.094Z,21.91
2018-07-05T17:31:20.290Z,21.98
2018-07-05T17:34:08.224Z,21.95
2018-07-05T17:36:55.503Z,21.87
2018-07-05T17:39:42.813Z,21.83
2018-07-05T17:42:29.300Z,21.89
2018-07-05T17:45:16.376Z,21.95
2018-07-05T17:48:03.170Z,22.10
2018-07-05T17:50:50.355Z,22.19
2018-07-05T17:53:37.534Z,22.25
2018-07-05T17:56:24.300Z,22.39
2018-07-05T17:59:11.162Z,22.52
2018-07-05T18:01:57.596Z,22.53
2018-07-05T18:04:44.479Z,22.62
2018-07-05T18:07:33.205Z,22.50
2018-07-05T18:10:21.857Z,22.52
2018-07-05T18:13:09.409Z,22.69
2018-07-05T18:15:56.363Z,22.59
2018-07-05T18:18:42.851Z,22.68
2018-07-05T18:21:30.504Z,22.25
2018-07-05T18:24:18.294Z,22.48
2018-07-05T18:27:06.503Z,22.63
2018-07-05T18:29:53.250Z,22.46
2018-07-05T18:32:40.443Z,22.44
2018-07-05T18:35:27.399Z,22.13
2018-07-05T18:38:14.574Z,21.40
2018-07-05T18:41:01.542Z,21.35
2018-07-05T18:43:50.966Z,21.63
2018-07-05T18:46:39.549Z,21.75
2018-07-05T18:49:27.885Z,21.91
2018-07-05T18:52:14.298Z,21.97
2018-07-05T18:55:01.668Z,21.58
2018-07-05T18:57:48.295Z,21.29
2018-07-05T19:00:39.176Z,21.31
2018-07-05T19:03:30.502Z,21.63
2018-07-05T19:06:20.839Z,21.20
2018-07-05T19:09:09.104Z,20.80
2018-07-05T19:12:01.942Z,20.94
2018-07-05T19:14:55.669Z,21.03
2018-07-05T19:17:49.773Z,21.33
2018-07-05T19:20:40.493Z,21.54
2018-07-05T19:23:29.310Z,21.47
2018-07-05T19:26:18.222Z,21.47
2018-07-05T19:29:05.430Z,21.47
2018-07-05T19:31:52.473Z,21.55
2018-07-05T19:34:42.304Z,21.50
2018-07-05T19:37:32.679Z,21.18
2018-07-05T19:40:23.162Z,21.30
2018-07-05T19:43:09.563Z,21.40
2018-07-05T19:45:56.506Z,21.33
2018-07-05T19:48:48.212Z,21.32
2018-07-05T19:51:35.480Z,21.24
2018-07-05T19:54:22.007Z,21.14
2018-07-05T19:57:09.167Z,21.11
2018-07-05T19:59:59.006Z,20.96
2018-07-05T20:02:46.544Z,20.98
2018-07-05T20:05:32.940Z,20.91
2018-07-05T20:08:19.556Z,20.95
2018-07-05T20:11:07.354Z,20.96
2018-07-05T20:13:54.685Z,20.91
2018-07-05T20:16:41.999Z,20.90
2018-07-05T20:19:32.603Z,20.81
2018-07-05T20:22:20.128Z,20.70
2018-07-05T20:25:07.282Z,20.74
2018-07-05T20:27:53.667Z,20.70
2018-07-05T20:30:42.623Z,20.66
2018-07-05T20:33:29.785Z,20.64
2018-07-05T20:36:18.983Z,20.71
2018-07-05T20:39:06.463Z,20.61
2018-07-05T20:41:54.534Z,20.58
2018-07-05T20:44:41.991Z,20.66
2018-07-05T20:47:28.843Z,20.69
2018-07-05T20:50:15.233Z,20.67
2018-07-05T20:53:02.723Z,20.65
2018-07-05T20:55:50.636Z,20.56
2018-07-05T20:58:41.590Z,20.60
2018-07-05T21:01:28.453Z,20.61
2018-07-05T21:04:15.568Z,20.57
2018-07-05T21:07:02.264Z,20.45
2018-07-05T21:09:49.209Z,20.49
2018-07-05T21:12:37.887Z,20.36
2018-07-05T21:15:26.502Z,20.30
2018-07-05T21:18:16.166Z,20.38
2018-07-05T21:21:03.508Z,20.40
2018-07-05T21:23:50.910Z,20.48
2018-07-05T21:26:39.376Z,20.54
2018-07-05T21:29:32.081Z,20.53
2018-07-05T21:32:18.922Z,20.47
2018-07-05T21:35:06.719Z,20.38
2018-07-05T21:37:54.614Z,20.41
2018-07-05T21:40:41.590Z,20.27
2018-07-05T21:43:34.141Z,20.15
2018-07-05T21:46:22.175Z,20.13
2018-07-05T21:49:09.888Z,20.11
2018-07-05T21:51:56.687Z,20.17
2018-07-05T21:54:43.257Z,20.15
2018-07-05T21:57:30.622Z,20.15
2018-07-05T22:00:18.739Z,20.12
2018-07-05T22:03:05.354Z,20.09
2018-07-05T22:05:52.315Z,20.14
2018-07-05T22:08:39.077Z,20.09
2018-07-05T22:11:26.400Z,20.05
2018-07-05T22:14:14.129Z,20.07
2018-07-05T22:17:08.135Z,20.08
2018-07-05T22:20:01.102Z,20.08
2018-07-05T22:22:54.227Z,20.08
2018-07-05T22:25:47.052Z,19.97
2018-07-05T22:28:41.037Z,19.95
2018-07-05T22:31:31.459Z,19.99
2018-07-05T22:34:18.660Z,19.89
2018-07-05T22:37:06.910Z,19.98
2018-07-05T22:39:55.629Z,20.04
2018-07-05T22:42:42.396Z,19.99
2018-07-05T22:45:30.612Z,19.96
2018-07-05T22:48:18.414Z,19.91
2018-07-05T22:51:05.912Z,19.81
2018-07-05T22:53:53.470Z,19.77
2018-07-05T22:56:41.740Z,19.74
2018-07-05T22:59:28.572Z,19.64
2018-07-05T23:02:15.560Z,19.65
2018-07-05T23:05:02.401Z,19.49
2018-07-05T23:07:49.701Z,19.56
2018-07-05T23:10:36.890Z,19.41
2018-07-05T23:13:24.937Z,19.42
2018-07-05T23:16:12.264Z,19.30
2018-07-05T23:18:59.408Z,19.33
2018-07-05T23:21:46.429Z,19.33
2018-07-05T23:24:32.927Z,19.38
2018-07-05T23:27:20.053Z,19.44
2018-07-05T23:30:07.152Z,19.47
2018-07-05T23:32:55.079Z,19.58
2018-07-05T23:35:41.916Z,19.55
2018-07-05T23:38:28.620Z,19.40
2018-07-05T23:41:16.439Z,19.57
2018-07-05T23:44:05.413Z,19.59
2018-07-05T23:46:52.773Z,19.65
2018-07-05T23:49:39.741Z,19.63
2018-07-05T23:52:27.272Z,19.70
2018-07-05T23:55:15.734Z,19.55
2018-07-05T23:58:02.629Z,19.33
